.
WxDataArchive / Data Records for 2014-07-25
2014-07-24 July 2014 2014-07-26

Data Records for Friday, 25 July 2014

Time	Temp	Chill	HIndex	Humid	Dewpt	 Wind 	HiWind	WindDir	Rain 	Barom
-----	----	-----	------	-----	-----	------	------	-------	-----	-----
00:00	61.2	61.2	61.2	75	53.2	0	0	---	0.00	30.040 
00:05	61.0	61.0	61.0	75	53.0	0	0	---	0.00	30.040 
00:10	60.9	60.9	60.9	76	53.3	0	0	---	0.00	30.040 
00:15	60.5	60.5	60.5	77	53.2	0	0	---	0.00	30.032 
00:20	60.4	60.4	60.4	77	53.2	0	0	---	0.00	30.032 
00:25	60.1	60.1	60.1	78	53.2	0	0	---	0.00	30.032 
00:30	59.9	59.9	59.9	79	53.4	0	0	---	0.00	30.028 
00:35	59.8	59.8	59.8	79	53.3	0	0	---	0.00	30.028 
00:40	59.6	59.6	59.6	79	53.1	0	0	---	0.00	30.028 
00:45	59.5	59.5	59.5	80	53.3	0	0	---	0.00	30.025 
00:50	59.3	59.3	59.3	80	53.1	0	0	---	0.00	30.025 
00:55	59.2	59.2	59.2	80	53.0	0	0	---	0.00	30.025 
01:00	59.2	59.2	59.2	81	53.4	0	0	---	0.00	30.031 
01:05	59.0	59.0	59.0	81	53.2	0	0	---	0.00	30.031 
01:10	59.0	59.0	59.0	81	53.2	0	0	---	0.00	30.031 
01:15	58.9	58.9	58.9	82	53.4	0	0	---	0.00	30.026 
01:20	58.9	58.9	58.9	83	53.7	0	0	---	0.00	30.026 
01:25	58.7	58.7	58.7	84	53.9	0	0	---	0.00	30.026 
01:30	58.6	58.6	58.6	84	53.8	0	0	---	0.00	30.028 
01:35	58.4	58.4	58.4	84	53.6	0	0	---	0.00	30.028 
01:40	58.3	58.3	58.3	85	53.8	0	0	---	0.00	30.028 
01:45	58.1	58.1	58.1	86	53.9	0	0	---	0.00	30.028 
01:50	58.0	58.0	58.0	86	53.8	0	0	---	0.00	30.028 
01:55	57.8	57.8	57.8	87	54.0	0	0	---	0.00	30.028 
02:00	57.6	57.6	57.6	87	53.8	0	0	---	0.00	30.027 
02:05	57.5	57.5	57.5	87	53.7	0	0	---	0.00	30.027 
02:10	57.3	57.3	57.3	87	53.5	0	0	---	0.00	30.027 
02:15	57.0	57.0	57.0	87	53.2	0	0	---	0.00	30.023 
02:20	57.0	57.0	57.0	87	53.2	0	0	---	0.00	30.023 
02:25	56.9	56.9	56.9	88	53.4	0	0	---	0.00	30.023 
02:30	56.7	56.7	56.7	88	53.2	0	0	---	0.00	30.023 
02:35	56.6	56.6	56.6	88	53.1	0	0	---	0.00	30.023 
02:40	56.5	56.5	56.5	88	53.0	0	0	---	0.00	30.023 
02:45	56.3	56.3	56.3	88	52.8	0	0	---	0.00	30.017 
02:50	56.3	56.3	56.3	88	52.8	0	0	---	0.00	30.017 
02:55	56.2	56.2	56.2	88	52.7	0	0	---	0.00	30.017 
03:00	56.0	56.0	56.0	89	52.8	0	0	---	0.00	30.019 
03:05	55.9	55.9	55.9	89	52.7	0	0	---	0.00	30.019 
03:10	55.7	55.7	55.7	89	52.5	0	0	---	0.00	30.019 
03:15	55.7	55.7	55.7	89	52.5	0	0	---	0.00	30.025 
03:20	55.6	55.6	55.6	89	52.4	0	0	---	0.00	30.025 
03:25	55.6	55.6	55.6	89	52.4	0	0	---	0.00	30.025 
03:30	55.4	55.4	55.4	89	52.2	0	0	---	0.00	30.029 
03:35	55.3	55.3	55.3	90	52.4	0	0	---	0.00	30.029 
03:40	55.3	55.3	55.3	90	52.4	0	0	---	0.00	30.029 
03:45	55.1	55.1	55.1	90	52.2	0	0	---	0.00	30.039 
03:50	55.1	55.1	55.1	90	52.2	0	0	---	0.00	30.039 
03:55	55.0	55.0	55.0	90	52.1	0	0	---	0.00	30.039 
04:00	54.8	54.8	54.8	90	51.9	0	0	---	0.00	30.042 
04:05	54.7	54.7	54.7	90	51.8	0	0	---	0.00	30.042 
04:10	54.7	54.7	54.7	90	51.8	0	0	---	0.00	30.042 
04:15	54.5	54.5	54.5	90	51.6	0	0	---	0.00	30.042 
04:20	54.4	54.4	54.4	90	51.5	0	0	---	0.00	30.042 
04:25	54.2	54.2	54.2	91	51.6	0	0	---	0.00	30.042 
04:30	54.2	54.2	54.2	91	51.6	0	0	---	0.00	30.041 
04:35	54.1	54.1	54.1	91	51.5	0	0	---	0.00	30.041 
04:40	54.1	54.1	54.1	91	51.5	0	0	---	0.00	30.041 
04:45	53.9	53.9	53.9	91	51.3	0	0	---	0.00	30.044 
04:50	53.9	53.9	53.9	91	51.3	0	0	---	0.00	30.044 
04:55	53.9	53.9	53.9	91	51.3	0	0	---	0.00	30.044 
05:00	53.8	53.8	53.8	91	51.2	0	0	---	0.00	30.053 
05:05	53.6	53.6	53.6	91	51.0	0	0	---	0.00	30.053 
05:10	53.6	53.6	53.6	91	51.0	0	0	---	0.00	30.053 
05:15	53.5	53.5	53.5	91	50.9	0	0	---	0.00	30.054 
05:20	53.5	53.5	53.5	91	50.9	0	0	---	0.00	30.054 
05:25	53.5	53.5	53.5	91	50.9	0	0	---	0.00	30.054 
05:30	53.5	53.5	53.5	92	51.2	0	0	---	0.00	30.059 
05:35	53.5	53.5	53.5	92	51.2	0	0	---	0.00	30.059 
05:40	53.3	53.3	53.3	92	51.0	0	0	---	0.00	30.059 
05:45	53.3	53.3	53.3	92	51.0	0	0	---	0.00	30.059 
05:50	53.2	53.2	53.2	92	50.9	0	0	---	0.00	30.059 
05:55	53.2	53.2	53.2	92	50.9	0	0	---	0.00	30.059 
06:00	53.2	53.2	53.2	92	50.9	0	0	---	0.00	30.058 
06:05	53.2	53.2	53.2	92	50.9	0	0	---	0.00	30.058 
06:10	53.2	53.2	53.2	92	50.9	0	0	---	0.00	30.058 
06:15	53.2	53.2	53.2	92	50.9	0	0	---	0.00	30.059 
06:20	53.2	53.2	53.2	92	50.9	0	0	---	0.00	30.059 
06:25	53.2	53.2	53.2	92	50.9	0	0	---	0.00	30.059 
06:30	53.2	53.2	53.2	93	51.2	0	0	---	0.00	30.050 
06:35	53.3	53.3	53.3	93	51.3	0	0	---	0.00	30.050 
06:40	53.5	53.5	53.5	93	51.5	0	0	---	0.00	30.050 
06:45	53.6	53.6	53.6	93	51.6	0	0	---	0.00	30.048 
06:50	53.8	53.8	53.8	93	51.8	0	0	---	0.00	30.048 
06:55	53.9	53.9	53.9	93	51.9	0	0	---	0.00	30.048 
07:00	54.1	54.1	54.1	93	52.1	0	0	---	0.00	30.060 
07:05	54.2	54.2	54.2	93	52.2	0	0	---	0.00	30.060 
07:10	54.5	54.5	54.5	93	52.5	0	0	---	0.00	30.060 
07:15	54.7	54.7	54.7	93	52.7	0	0	---	0.00	30.066 
07:20	55.1	55.1	55.1	93	53.1	0	0	---	0.00	30.066 
07:25	55.4	55.4	55.4	92	53.1	0	0	---	0.00	30.066 
07:30	55.9	55.9	55.9	92	53.6	0	0	---	0.00	30.067 
07:35	56.3	56.3	56.3	91	53.7	0	0	---	0.00	30.067 
07:40	56.7	56.7	56.7	90	53.8	0	0	---	0.00	30.067 
07:45	57.3	57.3	57.3	88	53.8	0	0	---	0.00	30.066 
07:50	58.1	58.1	58.1	86	53.9	0	0	---	0.00	30.066 
07:55	59.0	59.0	59.0	82	53.5	0	1	90	0.00	30.066 
08:00	60.1	60.1	60.1	79	53.6	0	1	90	0.00	30.041 
08:05	61.3	61.3	61.3	75	53.3	0	1	90	0.00	30.041 
08:10	62.3	62.3	62.3	74	53.9	0	2	90	0.00	30.041 
08:15	62.9	62.9	62.9	72	53.7	0	1	90	0.00	30.039 
08:20	63.2	63.2	63.2	70	53.2	0	2	90	0.00	30.039 
08:25	63.4	63.4	63.4	70	53.4	0	0	---	0.00	30.039 
08:30	63.2	63.2	63.2	70	53.2	0	2	90	0.00	30.035 
08:35	63.5	63.5	63.5	69	53.1	0	1	90	0.00	30.035 
08:40	64.5	64.5	64.5	68	53.7	0	4	112	0.00	30.035 
08:45	65.5	65.5	65.5	66	53.8	0	2	112	0.00	30.033 
08:50	65.6	65.6	65.6	65	53.5	0	1	112	0.00	30.033 
08:55	65.3	65.3	65.3	65	53.2	0	0	---	0.00	30.033 
09:00	65.0	65.0	65.0	66	53.4	0	1	112	0.00	30.066 
09:05	65.0	65.0	65.0	66	53.4	0	1	112	0.00	30.066 
09:10	65.5	65.5	65.5	65	53.4	0	1	112	0.00	30.066 
09:15	66.3	66.3	66.3	63	53.3	0	1	112	0.00	30.071 
09:20	66.9	66.9	66.9	62	53.4	0	2	180	0.00	30.071 
09:25	67.3	67.3	67.3	61	53.4	0	1	180	0.00	30.071 
09:30	67.6	67.6	67.6	60	53.2	0	1	180	0.00	30.068 
09:35	67.8	67.8	67.8	59	52.9	0	2	248	0.00	30.068 
09:40	67.6	67.6	67.6	59	52.8	0	1	248	0.00	30.068 
09:45	67.8	67.8	67.8	61	53.9	0	2	248	0.00	30.071 
09:50	68.3	68.3	68.3	59	53.4	0	2	248	0.00	30.071 
09:55	68.6	68.6	68.6	58	53.2	0	2	248	0.00	30.071 
10:00	68.8	68.8	68.8	58	53.4	0	2	248	0.00	30.079 
10:05	68.9	68.9	68.9	58	53.5	0	2	248	0.00	30.079 
10:10	69.1	69.1	69.1	57	53.2	0	1	248	0.00	30.079 
10:15	68.9	68.9	68.9	57	53.0	0	3	248	0.00	30.079 
10:20	69.3	69.3	69.3	58	53.9	0	1	248	0.00	30.079 
10:25	69.8	69.8	69.8	58	54.3	0	2	248	0.00	30.079 
10:30	69.9	69.9	69.9	56	53.5	0	2	248	0.00	30.076 
10:35	69.8	69.8	69.8	56	53.4	0	2	248	0.00	30.076 
10:40	69.8	69.8	69.8	57	53.9	0	1	248	0.00	30.076 
10:45	70.1	70.1	70.1	59	55.1	0	1	248	0.00	30.071 
10:50	70.3	70.3	70.3	57	54.3	0	2	248	0.00	30.071 
10:55	70.4	70.4	70.4	57	54.4	0	1	248	0.00	30.071 
11:00	70.6	70.6	70.6	56	54.1	0	2	248	0.00	30.053 
11:05	70.8	70.8	70.8	58	55.3	0	1	248	0.00	30.053 
11:10	71.1	71.1	71.1	55	54.1	0	3	225	0.00	30.053 
11:15	71.6	71.6	71.6	55	54.6	0	1	225	0.00	30.052 
11:20	72.0	72.0	72.0	55	54.9	0	1	225	0.00	30.052 
11:25	72.5	72.5	72.5	54	54.9	0	2	225	0.00	30.052 
11:30	72.7	72.7	72.7	55	55.6	0	1	225	0.00	30.041 
11:35	72.8	72.8	72.8	54	55.2	0	1	225	0.00	30.041 
11:40	72.7	72.7	72.7	55	55.6	0	1	225	0.00	30.041 
11:45	72.8	72.8	72.8	56	56.2	0	1	225	0.00	30.048 
11:50	73.2	73.2	73.2	54	55.5	0	1	225	0.00	30.048 
11:55	73.3	73.3	73.3	54	55.6	1	3	225	0.00	30.048 
12:00	73.3	73.3	73.3	53	55.1	0	3	225	0.00	30.049 
12:05	73.3	73.3	73.3	53	55.1	0	2	225	0.00	30.049 
12:10	73.5	73.5	73.5	54	55.8	1	6	68	0.00	30.049 
12:15	73.5	73.5	73.5	50	53.7	0	2	45	0.00	30.052 
12:20	73.3	73.3	73.3	50	53.5	0	3	0	0.00	30.052 
12:25	73.3	73.3	73.3	51	54.1	0	1	0	0.00	30.052 
12:30	73.3	73.3	73.3	51	54.1	0	2	0	0.00	30.042 
12:35	73.2	73.2	73.2	52	54.5	1	4	0	0.00	30.042 
12:40	73.5	73.5	73.5	53	55.3	0	2	292	0.00	30.042 
12:45	74.0	74.0	74.0	52	55.2	0	3	338	0.00	30.038 
12:50	74.4	74.4	74.4	50	54.5	1	5	270	0.00	30.038 
12:55	74.7	74.7	74.7	50	54.8	1	4	270	0.00	30.038 
13:00	75.4	75.4	77.8	47	53.7	1	3	68	0.00	30.022 
13:05	75.8	75.8	78.0	49	55.3	1	3	270	0.00	30.022 
13:10	76.1	76.1	78.1	49	55.5	0	2	270	0.00	30.022 
13:15	76.1	76.1	78.1	47	54.4	1	3	270	0.00	30.019 
13:20	76.1	76.1	78.0	44	52.6	0	2	292	0.00	30.019 
13:25	76.3	76.3	78.1	46	54.0	0	2	270	0.00	30.019 
13:30	76.7	76.7	78.4	47	54.9	1	2	270	0.00	30.008 
13:35	77.0	77.0	78.4	45	54.0	1	4	292	0.00	30.008 
13:40	76.7	76.7	78.3	44	53.1	1	3	292	0.00	30.008 
13:45	76.1	76.1	78.0	45	53.2	1	3	292	0.00	30.008 
13:50	76.1	76.1	78.0	45	53.2	2	5	292	0.00	30.008 
13:55	76.7	76.7	78.3	46	54.3	0	2	292	0.00	30.008 
14:00	77.2	77.2	78.5	43	52.9	1	4	112	0.00	30.003 
14:05	77.4	77.4	78.6	43	53.1	2	5	270	0.00	30.003 
14:10	76.5	76.5	78.2	46	54.2	1	4	270	0.00	30.003 
14:15	76.3	76.3	78.1	44	52.8	1	3	270	0.00	29.997 
14:20	76.1	76.1	78.1	47	54.4	0	1	270	0.00	29.997 
14:25	76.5	76.5	78.3	47	54.7	1	3	68	0.00	29.997 
14:30	76.8	76.8	78.3	44	53.2	1	3	68	0.00	29.995 
14:35	77.0	77.0	78.4	44	53.4	1	3	292	0.00	29.995 
14:40	76.7	76.7	78.3	46	54.3	1	3	292	0.00	29.995 
14:45	76.3	76.3	78.1	46	54.0	1	3	248	0.00	29.994 
14:50	76.1	76.1	78.0	46	53.8	0	2	248	0.00	29.994 
14:55	76.0	76.0	78.0	47	54.3	0	3	248	0.00	29.994 
15:00	75.8	75.8	78.0	48	54.7	1	4	248	0.00	29.989 
15:05	75.6	75.6	77.9	47	53.9	1	3	270	0.00	29.989 
15:10	76.5	76.5	78.3	48	55.3	0	3	315	0.00	29.989 
15:15	77.0	77.0	78.4	45	54.0	1	4	315	0.00	29.984 
15:20	77.0	77.0	78.4	44	53.4	1	4	292	0.00	29.984 
15:25	77.4	77.4	78.7	47	55.6	0	3	292	0.00	29.984 
15:30	77.4	77.4	78.6	43	53.1	1	3	0	0.00	29.979 
15:35	77.2	77.2	78.6	46	54.8	0	2	315	0.00	29.979 
15:40	76.7	76.7	78.2	43	52.5	1	5	270	0.00	29.979 
15:45	76.0	76.0	78.0	44	52.5	1	3	338	0.00	29.978 
15:50	75.6	75.6	77.8	45	52.7	0	3	338	0.00	29.978 
15:55	76.0	76.0	78.0	45	53.1	0	3	315	0.00	29.978 
16:00	76.5	76.5	78.2	46	54.2	0	2	248	0.00	29.969 
16:05	77.4	77.4	78.6	45	54.4	1	3	22	0.00	29.969 
16:10	77.6	77.6	78.8	46	55.2	1	3	270	0.00	29.969 
16:15	77.4	77.4	78.7	46	55.0	1	3	270	0.00	29.975 
16:20	76.7	76.7	78.3	46	54.3	1	2	315	0.00	29.975 
16:25	76.3	76.3	78.2	47	54.6	0	1	338	0.00	29.975 
16:30	76.1	76.1	78.1	48	55.0	0	3	338	0.00	29.965 
16:35	75.8	75.8	77.9	47	54.1	1	4	292	0.00	29.965 
16:40	75.4	75.4	77.8	47	53.7	1	3	292	0.00	29.965 
16:45	75.3	75.3	77.7	49	54.8	0	1	292	0.00	29.966 
16:50	75.3	75.3	77.7	50	55.4	1	3	292	0.00	29.966 
16:55	75.1	75.1	77.7	50	55.2	1	3	292	0.00	29.966 
17:00	74.9	74.9	74.9	51	55.5	0	1	315	0.00	29.955 
17:05	74.6	74.6	74.6	51	55.3	0	2	315	0.00	29.955 
17:10	74.4	74.4	74.4	52	55.6	0	2	315	0.00	29.955 
17:15	74.4	74.4	74.4	51	55.1	1	4	45	0.00	29.952 
17:20	74.2	74.2	74.2	51	54.9	0	2	45	0.00	29.952 
17:25	73.9	73.9	73.9	50	54.1	0	5	22	0.00	29.952 
17:30	73.9	73.9	73.9	51	54.6	1	4	68	0.00	29.958 
17:35	73.7	73.7	73.7	52	55.0	0	2	270	0.00	29.958 
17:40	73.7	73.7	73.7	51	54.4	0	2	315	0.00	29.958 
17:45	73.5	73.5	73.5	53	55.3	0	1	315	0.00	29.968 
17:50	73.5	73.5	73.5	52	54.8	0	3	315	0.00	29.968 
17:55	73.2	73.2	73.2	50	53.4	0	3	292	0.00	29.968 
18:00	73.2	73.2	73.2	51	54.0	0	1	292	0.00	29.963 
18:05	73.2	73.2	73.2	51	54.0	0	1	292	0.00	29.963 
18:10	73.3	73.3	73.3	52	54.6	0	1	292	0.00	29.963 
18:15	73.5	73.5	73.5	51	54.2	0	3	292	0.00	29.971 
18:20	73.5	73.5	73.5	51	54.2	0	1	292	0.00	29.971 
18:25	73.5	73.5	73.5	51	54.2	0	1	292	0.00	29.971 
18:30	73.5	73.5	73.5	52	54.8	0	1	292	0.00	29.964 
18:35	73.5	73.5	73.5	51	54.2	0	2	292	0.00	29.964 
18:40	73.3	73.3	73.3	51	54.1	0	1	292	0.00	29.964 
18:45	73.2	73.2	73.2	51	54.0	0	1	292	0.00	29.963 
18:50	73.2	73.2	73.2	51	54.0	0	1	292	0.00	29.963 
18:55	73.0	73.0	73.0	51	53.8	0	1	292	0.00	29.963 
19:00	72.8	72.8	72.8	50	53.1	0	1	292	0.00	29.965 
19:05	72.8	72.8	72.8	50	53.1	0	1	292	0.00	29.965 
19:10	72.7	72.7	72.7	52	54.0	0	1	292	0.00	29.965 
19:15	72.7	72.7	72.7	52	54.0	0	1	292	0.00	29.956 
19:20	72.7	72.7	72.7	53	54.6	0	0	---	0.00	29.956 
19:25	72.7	72.7	72.7	52	54.0	0	0	---	0.00	29.956 
19:30	72.7	72.7	72.7	53	54.6	0	1	292	0.00	29.944 
19:35	72.7	72.7	72.7	53	54.6	0	1	292	0.00	29.944 
19:40	72.7	72.7	72.7	53	54.6	0	1	292	0.00	29.944 
19:45	72.5	72.5	72.5	53	54.4	0	1	292	0.00	29.941 
19:50	72.5	72.5	72.5	54	54.9	0	0	---	0.00	29.941 
19:55	72.5	72.5	72.5	53	54.4	0	0	---	0.00	29.941 
20:00	72.5	72.5	72.5	54	54.9	0	0	---	0.00	29.944 
20:05	72.3	72.3	72.3	54	54.7	0	0	---	0.00	29.944 
20:10	72.3	72.3	72.3	54	54.7	0	1	292	0.00	29.944 
20:15	72.1	72.1	72.1	54	54.5	0	0	---	0.00	29.944 
20:20	72.1	72.1	72.1	54	54.5	0	0	---	0.00	29.944 
20:25	72.0	72.0	72.0	54	54.4	0	0	---	0.00	29.944 
20:30	72.0	72.0	72.0	55	54.9	0	0	---	0.00	29.942 
20:35	71.8	71.8	71.8	54	54.2	0	1	292	0.00	29.942 
20:40	71.8	71.8	71.8	55	54.7	0	1	292	0.00	29.942 
20:45	71.6	71.6	71.6	55	54.6	0	1	292	0.00	29.940 
20:50	71.6	71.6	71.6	54	54.1	0	0	---	0.00	29.940 
20:55	71.5	71.5	71.5	54	54.0	0	0	---	0.00	29.940 
21:00	71.5	71.5	71.5	54	54.0	0	1	292	0.00	29.940 
21:05	71.3	71.3	71.3	54	53.8	0	0	---	0.00	29.940 
21:10	71.3	71.3	71.3	54	53.8	0	0	---	0.00	29.940 
21:15	71.3	71.3	71.3	55	54.3	0	0	---	0.00	29.937 
21:20	71.1	71.1	71.1	55	54.1	0	0	---	0.00	29.937 
21:25	70.9	70.9	70.9	56	54.4	0	0	---	0.00	29.937 
21:30	70.9	70.9	70.9	57	54.9	0	0	---	0.00	29.938 
21:35	70.8	70.8	70.8	58	55.3	0	1	292	0.00	29.938 
21:40	70.8	70.8	70.8	58	55.3	0	0	---	0.00	29.938 
21:45	70.6	70.6	70.6	58	55.1	0	0	---	0.00	29.942 
21:50	70.4	70.4	70.4	59	55.4	0	0	---	0.00	29.942 
21:55	70.4	70.4	70.4	60	55.8	0	0	---	0.00	29.942 
22:00	70.3	70.3	70.3	60	55.7	0	1	292	0.00	29.947 
22:05	70.1	70.1	70.1	61	56.0	0	0	---	0.00	29.947 
22:10	70.1	70.1	70.1	61	56.0	0	0	---	0.00	29.947 
22:15	69.9	69.9	69.9	62	56.3	0	0	---	0.00	29.952 
22:20	69.9	69.9	69.9	62	56.3	0	1	292	0.00	29.952 
22:25	69.8	69.8	69.8	62	56.2	0	1	292	0.00	29.952 
22:30	69.8	69.8	69.8	63	56.6	0	0	---	0.00	29.949 
22:35	69.6	69.6	69.6	64	56.9	0	1	292	0.00	29.949 
22:40	69.6	69.6	69.6	63	56.4	0	1	292	0.00	29.949 
22:45	69.6	69.6	69.6	64	56.9	0	0	---	0.00	29.945 
22:50	69.4	69.4	69.4	64	56.7	0	1	292	0.00	29.945 
22:55	69.4	69.4	69.4	64	56.7	0	0	---	0.00	29.945 
23:00	69.3	69.3	69.3	65	57.0	0	0	---	0.00	29.949 
23:05	69.1	69.1	69.1	65	56.8	0	0	---	0.00	29.949 
23:10	68.9	68.9	68.9	65	56.6	0	0	---	0.00	29.949 
23:15	68.8	68.8	68.8	66	57.0	0	0	---	0.00	29.942 
23:20	68.8	68.8	68.8	66	57.0	0	0	---	0.00	29.942 
23:25	68.6	68.6	68.6	68	57.6	0	0	---	0.00	29.942 
23:30	68.4	68.4	68.4	69	57.8	0	0	---	0.00	29.941 
23:35	68.3	68.3	68.3	69	57.7	0	0	---	0.00	29.941 
23:40	68.1	68.1	68.1	69	57.5	0	0	---	0.00	29.941 
23:45	67.8	67.8	67.8	70	57.6	0	0	---	0.00	29.942 
23:50	67.6	67.6	67.6	71	57.9	0	0	---	0.00	29.942 
23:55	67.4	67.4	67.4	72	58.1	0	0	---	0.00	29.942 

CoCoRaHS
IN-AL-39
A2 Web Hosting
Creative Commons License
GoDaddy
search engine by freefind advanced

loaded 2018-11-15 05:11:10 • last modified 2010-11-18 10:43:29
Privacy PolicyDisclaimer
• wx.awcolley.com is powered by PmWiki v.2002016 •
• all content (unless otherwise noted) © 2018 A W Colley